Time;durP1;ratioP1;P1;durP2;ratioP2;P2;SDS_P1;SDS_P2;PMS_P1;PMS_P2;Temp;Humidity;BMP_temperature;BMP_pressure;BME280_temperature;BME280_humidity;BME280_pressure;Samples;Min_cycle;Max_cycle;Signal;HPM_P1;HPM_P2
2024/03/14 00:01:57;;;;;;;1.73;1.20;;;10.80;99.90;;;;;;5078415;28;20448;-50
2024/03/14 00:04:26;;;;;;;1.70;1.20;;;10.80;99.90;;;;;;5070908;28;20458;-50
2024/03/14 00:06:54;;;;;;;2.37;1.23;;;10.80;99.90;;;;;;5073860;28;20536;-49
2024/03/14 00:09:23;;;;;;;1.70;1.23;;;10.80;99.90;;;;;;5081946;28;20431;-49
2024/03/14 00:11:51;;;;;;;1.47;1.07;;;10.80;99.90;;;;;;5056693;28;20864;-47
2024/03/14 00:14:21;;;;;;;1.90;1.10;;;10.80;99.90;;;;;;5076785;28;20445;-52
2024/03/14 00:16:51;;;;;;;2.23;1.33;;;10.80;99.90;;;;;;5070201;28;20442;-48
2024/03/14 00:19:20;;;;;;;1.77;1.20;;;10.90;99.90;;;;;;5045890;28;20498;-48
2024/03/14 00:21:49;;;;;;;2.30;1.50;;;10.80;99.90;;;;;;5081757;28;20448;-47
2024/03/14 00:24:17;;;;;;;1.60;1.30;;;10.80;99.90;;;;;;5085894;28;20439;-49
2024/03/14 00:26:45;;;;;;;3.20;1.43;;;10.80;99.90;;;;;;5075419;28;20436;-47
2024/03/14 00:29:13;;;;;;;1.90;1.20;;;10.80;99.90;;;;;;5078932;28;20451;-48
2024/03/14 00:31:41;;;;;;;2.00;1.27;;;10.80;99.90;;;;;;5077358;28;20428;-49
2024/03/14 00:34:09;;;;;;;1.97;1.00;;;10.80;99.90;;;;;;5080966;28;20853;-47
2024/03/14 00:36:38;;;;;;;1.70;1.00;;;10.80;99.90;;;;;;5080570;28;20440;-47
2024/03/14 00:39:07;;;;;;;1.40;1.10;;;10.80;99.90;;;;;;5084887;28;20521;-48
2024/03/14 00:41:35;;;;;;;2.37;1.33;;;10.80;99.90;;;;;;5076524;28;20453;-50
2024/03/14 00:44:04;;;;;;;3.70;1.50;;;10.80;99.90;;;;;;5084895;28;20449;-48
2024/03/14 00:46:33;;;;;;;1.93;1.33;;;10.80;99.90;;;;;;5084956;28;20424;-48
2024/03/14 00:49:01;;;;;;;1.63;1.07;;;10.80;99.90;;;;;;5081234;28;20462;-49
2024/03/14 00:51:29;;;;;;;3.07;1.53;;;10.80;99.90;;;;;;5075842;28;20442;-49
2024/03/14 00:53:57;;;;;;;1.70;1.13;;;10.80;99.90;;;;;;5056800;28;20446;-48
2024/03/14 00:56:26;;;;;;;1.73;1.30;;;10.80;99.90;;;;;;5081203;28;20507;-48
2024/03/14 00:58:56;;;;;;;1.87;1.23;;;10.80;99.90;;;;;;5084176;28;20478;-49
2024/03/14 01:01:25;;;;;;;1.90;1.20;;;10.80;99.90;;;;;;5076033;28;20444;-49
2024/03/14 01:03:53;;;;;;;2.10;1.00;;;10.80;99.90;;;;;;5076503;28;20449;-48
2024/03/14 01:06:22;;;;;;;4.40;1.03;;;10.80;99.90;;;;;;5086666;28;20994;-47
2024/03/14 01:08:50;;;;;;;1.90;1.07;;;10.80;99.90;;;;;;5076136;28;20462;-48
2024/03/14 01:11:19;;;;;;;1.50;0.90;;;10.80;99.90;;;;;;5073084;28;20434;-48
2024/03/14 01:13:47;;;;;;;2.07;1.10;;;10.80;99.90;;;;;;5074727;28;20435;-49
2024/03/14 01:16:15;;;;;;;1.60;1.10;;;10.80;99.90;;;;;;5086806;28;20956;-50
2024/03/14 01:18:43;;;;;;;1.50;1.00;;;10.80;99.90;;;;;;5081807;28;20457;-48
2024/03/14 01:21:12;;;;;;;1.87;1.20;;;10.80;99.90;;;;;;5080822;28;20568;-49
2024/03/14 01:23:40;;;;;;;1.40;0.70;;;10.80;99.90;;;;;;5075423;28;20528;-52
2024/03/14 01:26:09;;;;;;;1.57;1.10;;;10.80;99.90;;;;;;5056559;28;20447;-48
2024/03/14 01:28:37;;;;;;;2.17;1.17;;;10.80;99.90;;;;;;5066315;28;20558;-50
2024/03/14 01:31:06;;;;;;;2.00;1.20;;;10.80;99.90;;;;;;5081891;28;20445;-49
2024/03/14 01:33:34;;;;;;;2.40;1.20;;;10.80;99.90;;;;;;5069482;28;20451;-48
2024/03/14 01:36:02;;;;;;;2.03;1.10;;;10.80;99.90;;;;;;5083227;28;20446;-49
2024/03/14 01:38:31;;;;;;;1.53;0.90;;;10.80;99.90;;;;;;5085224;28;20995;-47
2024/03/14 01:40:59;;;;;;;1.60;1.13;;;10.80;99.90;;;;;;5078546;28;20470;-48
2024/03/14 01:43:27;;;;;;;1.87;1.50;;;10.80;99.90;;;;;;5083476;28;20511;-50
2024/03/14 01:45:58;;;;;;;1.87;1.47;;;10.80;99.90;;;;;;5066617;28;20945;-47
2024/03/14 01:48:26;;;;;;;2.33;1.27;;;10.80;99.90;;;;;;5085557;28;21010;-49
2024/03/14 01:50:54;;;;;;;1.70;1.47;;;10.80;99.90;;;;;;5084535;28;20443;-49
2024/03/14 01:53:22;;;;;;;3.30;1.00;;;10.80;99.90;;;;;;5085170;28;20440;-47
2024/03/14 01:55:49;;;;;;;2.03;1.20;;;10.80;99.90;;;;;;5074163;28;20506;-49
2024/03/14 01:58:18;;;;;;;2.60;1.27;;;10.80;99.90;;;;;;5080271;28;20992;-48
2024/03/14 02:00:46;;;;;;;1.60;1.30;;;10.80;99.90;;;;;;5059602;28;20499;-49
2024/03/14 02:03:14;;;;;;;1.70;1.10;;;10.80;99.90;;;;;;5076313;28;20440;-48
2024/03/14 02:05:44;;;;;;;1.40;1.03;;;10.80;99.90;;;;;;5078213;28;20866;-49
2024/03/14 02:08:13;;;;;;;3.40;1.23;;;10.80;99.90;;;;;;5054649;28;20461;-49
2024/03/14 02:10:41;;;;;;;2.67;1.33;;;10.80;99.90;;;;;;5068763;28;20859;-49
2024/03/14 02:13:10;;;;;;;2.20;1.53;;;10.80;99.90;;;;;;5077702;28;20984;-47
2024/03/14 02:15:38;;;;;;;2.13;1.80;;;10.80;99.90;;;;;;5071880;28;20499;-50
2024/03/14 02:18:06;;;;;;;2.13;1.47;;;10.80;99.90;;;;;;5080228;28;21240;-49
2024/03/14 02:20:35;;;;;;;2.40;1.60;;;10.80;99.90;;;;;;5075807;28;20480;-48
2024/03/14 02:23:04;;;;;;;1.70;1.20;;;10.80;99.90;;;;;;5084018;28;20449;-48
2024/03/14 02:25:35;;;;;;;2.27;1.70;;;10.80;99.90;;;;;;5079444;28;20459;-49
2024/03/14 02:28:04;;;;;;;2.03;1.33;;;10.80;99.90;;;;;;5081281;28;20496;-47
2024/03/14 02:30:32;;;;;;;2.30;1.50;;;10.80;99.90;;;;;;5076337;28;20451;-50
2024/03/14 02:33:00;;;;;;;1.87;1.30;;;10.80;99.90;;;;;;5081735;28;20998;-49
2024/03/14 02:35:28;;;;;;;2.50;1.50;;;10.80;99.90;;;;;;5073207;28;20939;-48
2024/03/14 02:37:56;;;;;;;2.27;1.63;;;10.80;99.90;;;;;;5082880;28;20461;-48
2024/03/14 02:40:24;;;;;;;2.00;1.30;;;10.80;99.90;;;;;;5077979;28;20491;-47
2024/03/14 02:42:53;;;;;;;2.40;1.60;;;10.80;99.90;;;;;;5076004;28;20786;-48
2024/03/14 02:45:21;;;;;;;2.70;1.80;;;10.80;99.90;;;;;;5084752;28;20434;-48
2024/03/14 02:47:50;;;;;;;2.70;2.20;;;10.80;99.90;;;;;;5076030;28;20472;-47
2024/03/14 02:50:18;;;;;;;2.47;1.90;;;10.80;99.90;;;;;;5063069;28;20440;-49
2024/03/14 02:52:48;;;;;;;2.97;1.73;;;10.80;99.90;;;;;;5074839;28;20448;-46
2024/03/14 02:55:16;;;;;;;3.70;1.73;;;10.80;99.90;;;;;;5084600;28;20529;-49
2024/03/14 02:57:45;;;;;;;1.60;1.23;;;10.80;99.90;;;;;;5074205;28;20466;-48
2024/03/14 03:00:15;;;;;;;1.70;1.20;;;10.80;99.90;;;;;;5079142;28;20469;-48
2024/03/14 03:02:45;;;;;;;1.60;1.30;;;10.80;99.90;;;;;;5074855;28;20480;-49
2024/03/14 03:05:13;;;;;;;2.13;1.47;;;10.80;99.90;;;;;;5082019;28;20824;-48
2024/03/14 03:07:44;;;;;;;2.73;1.60;;;10.80;99.90;;;;;;5070426;28;20463;-48
2024/03/14 03:10:13;;;;;;;3.10;1.47;;;10.80;99.90;;;;;;5079080;28;20439;-48
2024/03/14 03:12:41;;;;;;;2.50;1.80;;;10.80;99.90;;;;;;5079292;28;20536;-49
2024/03/14 03:15:09;;;;;;;1.90;1.50;;;10.80;99.90;;;;;;5073282;28;20445;-48
2024/03/14 03:17:39;;;;;;;1.83;1.27;;;10.70;99.90;;;;;;5065295;28;20504;-49
2024/03/14 03:20:11;;;;;;;1.60;1.00;;;10.80;99.90;;;;;;5081876;28;20433;-48
2024/03/14 03:25:26;;;;;;;2.20;1.87;;;10.80;99.90;;;;;;5075636;28;20451;-47
2024/03/14 03:27:53;;;;;;;2.67;1.80;;;10.80;99.90;;;;;;5081886;28;20550;-47
2024/03/14 03:30:21;;;;;;;1.77;1.37;;;10.80;99.90;;;;;;5078512;28;20487;-49
2024/03/14 03:32:50;;;;;;;2.67;1.93;;;10.80;99.90;;;;;;5061469;28;20530;-49
2024/03/14 03:35:21;;;;;;;3.20;2.30;;;10.70;99.90;;;;;;5070983;28;20522;-47
2024/03/14 03:37:54;;;;;;;4.43;2.57;;;10.80;99.90;;;;;;5067144;28;20466;-49
2024/03/14 03:40:22;;;;;;;2.17;1.63;;;10.80;99.90;;;;;;5076297;28;20465;-47
2024/03/14 03:42:51;;;;;;;2.13;1.63;;;10.70;99.90;;;;;;5076623;28;20841;-46
2024/03/14 03:45:20;;;;;;;2.13;1.37;;;10.80;99.90;;;;;;5074903;28;20852;-49
2024/03/14 03:47:47;;;;;;;1.90;1.57;;;10.80;99.90;;;;;;5081794;28;20552;-49
2024/03/14 03:50:15;;;;;;;4.17;1.97;;;10.80;99.90;;;;;;5072253;28;20522;-49
2024/03/14 03:52:43;;;;;;;6.33;1.80;;;10.80;99.90;;;;;;5064742;28;20444;-49
2024/03/14 03:55:16;;;;;;;2.90;2.40;;;10.80;99.90;;;;;;5072819;28;20436;-47
2024/03/14 03:57:44;;;;;;;2.77;2.27;;;10.80;99.90;;;;;;5074539;28;21388;-48
2024/03/14 04:00:33;;;;;;;3.90;2.13;;;10.80;99.90;;;;;;5074510;28;20442;-49
2024/03/14 04:03:07;;;;;;;4.30;1.77;;;10.70;99.90;;;;;;5068623;28;20500;-46
2024/03/14 04:05:36;;;;;;;2.20;1.47;;;10.70;99.90;;;;;;5072497;28;20444;-49
2024/03/14 04:08:04;;;;;;;3.30;1.40;;;10.80;99.90;;;;;;5086533;28;20467;-46
2024/03/14 04:10:33;;;;;;;2.00;1.57;;;10.80;99.90;;;;;;5063475;28;20449;-47
2024/03/14 04:13:00;;;;;;;1.83;1.20;;;10.70;99.90;;;;;;5082508;28;20444;-49
2024/03/14 04:15:29;;;;;;;1.97;1.50;;;10.70;99.90;;;;;;5062889;28;20805;-47
2024/03/14 04:17:57;;;;;;;1.83;1.30;;;10.70;99.90;;;;;;5078341;28;20484;-48
2024/03/14 04:20:27;;;;;;;2.43;1.40;;;10.70;99.90;;;;;;5069692;28;20441;-48
2024/03/14 04:22:55;;;;;;;2.80;1.13;;;10.70;99.90;;;;;;5081600;28;20466;-49
2024/03/14 04:25:23;;;;;;;1.80;1.20;;;10.70;99.90;;;;;;5082593;28;20810;-49
2024/03/14 04:27:52;;;;;;;2.50;1.77;;;10.70;99.90;;;;;;5065431;28;20456;-49
2024/03/14 04:30:23;;;;;;;2.27;1.73;;;10.70;99.90;;;;;;5073285;28;20455;-49
2024/03/14 04:32:51;;;;;;;1.70;1.30;;;10.70;99.90;;;;;;5058839;28;20971;-49
2024/03/14 04:35:21;;;;;;;5.43;2.13;;;10.70;99.90;;;;;;5080251;28;20508;-49
2024/03/14 04:37:49;;;;;;;2.40;1.60;;;10.70;99.90;;;;;;5082157;28;20499;-46
2024/03/14 04:40:19;;;;;;;2.13;1.67;;;10.70;99.90;;;;;;5079025;28;20432;-49
2024/03/14 04:42:47;;;;;;;2.30;1.50;;;10.70;99.90;;;;;;5080936;28;20868;-49
2024/03/14 04:45:17;;;;;;;1.77;1.40;;;10.70;99.90;;;;;;5084653;28;20443;-49
2024/03/14 04:47:45;;;;;;;1.80;1.40;;;10.70;99.90;;;;;;5076094;28;20463;-48
2024/03/14 04:50:14;;;;;;;1.70;1.20;;;10.70;99.90;;;;;;5073253;28;20454;-49
2024/03/14 04:52:42;;;;;;;1.80;1.60;;;10.70;99.90;;;;;;5062450;28;20448;-48
2024/03/14 04:55:10;;;;;;;2.40;1.50;;;10.70;99.90;;;;;;5074281;28;20936;-48
2024/03/14 04:57:40;;;;;;;2.13;1.90;;;10.70;99.90;;;;;;5076815;28;20574;-49
2024/03/14 05:00:19;;;;;;;2.20;1.80;;;10.70;99.90;;;;;;5081067;28;20450;-47
2024/03/14 05:02:48;;;;;;;1.97;1.40;;;10.70;99.90;;;;;;5064479;28;20467;-49
2024/03/14 05:05:16;;;;;;;1.63;1.03;;;10.70;99.90;;;;;;5082347;28;20446;-46
2024/03/14 05:07:44;;;;;;;1.70;1.50;;;10.70;99.90;;;;;;5080079;28;20541;-47
2024/03/14 05:10:14;;;;;;;2.20;1.73;;;10.70;99.90;;;;;;5084168;28;20524;-48
2024/03/14 05:12:43;;;;;;;2.93;2.43;;;10.70;99.90;;;;;;5060020;28;20492;-48
2024/03/14 05:15:12;;;;;;;2.20;1.60;;;10.70;99.90;;;;;;5074270;28;20847;-48
2024/03/14 05:17:41;;;;;;;1.47;1.10;;;10.70;99.90;;;;;;5064984;28;20476;-48
2024/03/14 05:20:13;;;;;;;2.83;1.53;;;10.70;99.90;;;;;;5056021;28;20512;-48
2024/03/14 05:22:41;;;;;;;2.00;1.80;;;10.70;99.90;;;;;;5054391;28;20473;-48
2024/03/14 05:25:11;;;;;;;2.00;1.67;;;10.70;99.90;;;;;;5078028;28;20447;-48
2024/03/14 05:27:42;;;;;;;1.50;1.20;;;10.70;99.90;;;;;;5075299;28;20489;-48
2024/03/14 05:30:12;;;;;;;1.60;1.00;;;10.70;99.90;;;;;;5075182;28;20421;-48
2024/03/14 05:32:41;;;;;;;1.70;1.20;;;10.70;99.90;;;;;;5064612;28;20504;-48
2024/03/14 05:35:10;;;;;;;1.77;1.43;;;10.70;99.90;;;;;;5081020;28;20480;-47
2024/03/14 05:37:40;;;;;;;2.03;1.33;;;10.70;99.90;;;;;;5086629;28;20463;-48
2024/03/14 05:40:10;;;;;;;1.77;1.13;;;10.70;99.90;;;;;;5085913;28;20436;-48
2024/03/14 05:42:39;;;;;;;1.80;1.40;;;10.70;99.90;;;;;;5074581;28;20463;-46
2024/03/14 05:45:08;;;;;;;1.53;1.40;;;10.70;99.90;;;;;;5079831;28;20427;-47
2024/03/14 05:47:38;;;;;;;1.80;1.47;;;10.70;99.90;;;;;;5086838;28;20478;-47
2024/03/14 05:50:09;;;;;;;2.17;1.50;;;10.70;99.90;;;;;;5077086;28;20440;-48
2024/03/14 05:52:39;;;;;;;1.60;1.10;;;10.70;99.90;;;;;;5081670;28;20476;-46
2024/03/14 05:55:09;;;;;;;1.77;1.33;;;10.70;99.90;;;;;;5069231;28;20431;-49
2024/03/14 05:57:37;;;;;;;1.50;1.27;;;10.70;99.90;;;;;;5077813;28;20560;-49
2024/03/14 06:00:06;;;;;;;5.50;2.10;;;10.70;99.90;;;;;;5080253;28;20446;-46
2024/03/14 06:02:39;;;;;;;1.40;1.13;;;10.70;99.90;;;;;;5066745;28;20984;-46
2024/03/14 06:05:08;;;;;;;2.00;1.50;;;10.60;99.90;;;;;;5079960;28;21124;-47
2024/03/14 06:07:37;;;;;;;1.87;1.37;;;10.70;99.90;;;;;;5079962;28;20514;-47
2024/03/14 06:10:06;;;;;;;2.50;1.67;;;10.70;99.90;;;;;;5083392;28;20461;-47
2024/03/14 06:12:37;;;;;;;1.90;1.57;;;10.70;99.90;;;;;;5066365;28;20448;-48
2024/03/14 06:15:07;;;;;;;2.20;1.40;;;10.70;99.90;;;;;;5086700;28;20427;-48
2024/03/14 06:17:36;;;;;;;2.13;1.70;;;10.70;99.90;;;;;;5081969;28;20862;-49
2024/03/14 06:20:07;;;;;;;2.03;1.70;;;10.70;99.90;;;;;;5083251;28;20527;-50
2024/03/14 06:22:36;;;;;;;2.20;1.83;;;10.60;99.90;;;;;;5076501;28;20546;-48
2024/03/14 06:25:07;;;;;;;1.83;1.23;;;10.70;99.90;;;;;;5086650;28;20879;-49
2024/03/14 06:27:34;;;;;;;1.90;1.10;;;10.60;99.90;;;;;;5075448;28;21006;-48
2024/03/14 06:30:03;;;;;;;3.10;2.30;;;10.60;99.90;;;;;;5077181;28;20469;-49
2024/03/14 06:32:33;;;;;;;3.57;3.17;;;10.60;99.90;;;;;;5073888;28;20424;-50
2024/03/14 06:35:02;;;;;;;3.30;2.60;;;10.50;99.90;;;;;;5084516;28;20527;-49
2024/03/14 06:37:30;;;;;;;2.97;2.30;;;10.50;99.90;;;;;;5086938;28;20480;-49
2024/03/14 06:39:58;;;;;;;2.10;1.90;;;10.50;99.90;;;;;;5080406;28;20700;-47
2024/03/14 06:42:26;;;;;;;2.37;1.90;;;10.60;99.90;;;;;;5078158;28;20524;-49
2024/03/14 06:44:54;;;;;;;4.20;2.53;;;10.60;99.90;;;;;;5077577;28;20875;-50
2024/03/14 06:47:25;;;;;;;2.83;2.40;;;10.60;99.90;;;;;;5085328;28;20433;-47
2024/03/14 06:49:53;;;;;;;3.60;1.80;;;10.60;99.90;;;;;;5060293;28;20525;-48
2024/03/14 06:52:21;;;;;;;2.77;2.47;;;10.60;99.90;;;;;;5082925;28;20500;-48
2024/03/14 06:54:50;;;;;;;3.33;1.80;;;10.60;99.90;;;;;;5075080;28;20459;-47
2024/03/14 06:57:18;;;;;;;2.90;1.80;;;10.60;99.90;;;;;;5072777;28;20990;-47
2024/03/14 06:59:48;;;;;;;3.00;2.23;;;10.60;99.90;;;;;;5066450;28;20863;-49
2024/03/14 07:02:18;;;;;;;2.83;1.80;;;10.60;99.90;;;;;;5077228;28;20780;-50
2024/03/14 07:04:47;;;;;;;2.50;2.10;;;10.70;99.90;;;;;;5075305;28;20500;-47
2024/03/14 07:07:16;;;;;;;4.77;2.40;;;10.70;99.90;;;;;;5075891;28;20525;-48
2024/03/14 07:09:45;;;;;;;3.10;1.73;;;10.60;99.90;;;;;;5083652;28;20513;-50
2024/03/14 07:12:15;;;;;;;2.57;1.77;;;10.70;99.90;;;;;;5081935;28;20488;-48
2024/03/14 07:14:43;;;;;;;2.50;1.80;;;10.60;99.90;;;;;;5084663;28;20434;-49
2024/03/14 07:17:13;;;;;;;2.13;1.70;;;10.60;99.90;;;;;;5065326;28;20472;-47
2024/03/14 07:19:41;;;;;;;3.23;2.20;;;10.60;99.90;;;;;;5076078;28;20424;-50
2024/03/14 07:22:11;;;;;;;2.93;2.20;;;10.60;99.90;;;;;;5076569;28;20429;-47
2024/03/14 07:24:40;;;;;;;2.23;1.70;;;10.70;99.90;;;;;;5079126;28;20517;-50
2024/03/14 07:27:08;;;;;;;2.40;1.90;;;10.60;99.90;;;;;;5078723;28;20524;-48
2024/03/14 07:29:36;;;;;;;3.53;1.70;;;10.60;99.90;;;;;;5078782;28;20457;-48
2024/03/14 07:32:05;;;;;;;2.67;1.80;;;10.60;99.90;;;;;;5077342;28;20924;-48
2024/03/14 07:34:34;;;;;;;3.40;2.17;;;10.60;99.90;;;;;;5072118;28;20448;-49
2024/03/14 07:37:02;;;;;;;2.40;1.80;;;10.60;99.90;;;;;;5079688;28;20429;-48
2024/03/14 07:39:34;;;;;;;2.20;1.67;;;10.60;99.90;;;;;;5069423;28;20431;-49
2024/03/14 07:42:05;;;;;;;2.23;1.53;;;10.60;99.90;;;;;;5067506;28;20446;-49
2024/03/14 07:44:34;;;;;;;2.53;1.77;;;10.60;99.90;;;;;;5082849;28;20490;-50
2024/03/14 07:47:03;;;;;;;3.40;1.60;;;10.70;99.90;;;;;;5085357;28;20810;-48
2024/03/14 07:49:35;;;;;;;2.33;2.03;;;10.70;99.90;;;;;;5080690;28;20460;-48
2024/03/14 07:52:05;;;;;;;1.80;1.10;;;10.60;99.90;;;;;;5069213;28;20460;-50
2024/03/14 07:54:33;;;;;;;1.70;1.40;;;10.60;99.90;;;;;;5066080;28;20973;-47
2024/03/14 07:57:02;;;;;;;2.43;1.40;;;10.70;99.90;;;;;;5081014;28;20529;-47
2024/03/14 07:59:32;;;;;;;1.33;0.90;;;10.70;99.90;;;;;;5085371;28;20792;-50
2024/03/14 08:02:01;;;;;;;1.70;1.33;;;10.70;99.90;;;;;;5077564;28;20478;-47
2024/03/14 08:04:29;;;;;;;2.53;1.20;;;10.70;99.90;;;;;;5077891;28;20488;-47
2024/03/14 08:06:57;;;;;;;1.57;0.83;;;10.70;99.90;;;;;;5071928;28;20440;-48
2024/03/14 08:09:26;;;;;;;1.40;1.00;;;10.70;99.90;;;;;;5080168;28;20494;-52
2024/03/14 08:11:56;;;;;;;1.53;1.10;;;10.70;99.90;;;;;;5073865;28;20938;-48
2024/03/14 08:14:26;;;;;;;1.83;1.20;;;10.70;99.90;;;;;;5085724;28;20430;-47
2024/03/14 08:16:54;;;;;;;1.80;1.30;;;10.80;99.90;;;;;;5079887;28;20456;-50
2024/03/14 08:19:23;;;;;;;1.87;1.20;;;10.80;99.90;;;;;;5068969;28;20471;-49
2024/03/14 08:21:51;;;;;;;1.77;1.10;;;10.80;99.90;;;;;;5060027;28;20798;-49
2024/03/14 08:24:20;;;;;;;1.40;0.80;;;10.80;99.90;;;;;;5079306;28;20989;-48
2024/03/14 08:26:50;;;;;;;2.67;1.63;;;10.80;99.90;;;;;;5076239;28;20476;-49
2024/03/14 08:29:20;;;;;;;1.87;1.30;;;10.80;99.90;;;;;;5074876;28;20993;-49
2024/03/14 08:31:49;;;;;;;3.70;1.20;;;10.80;99.90;;;;;;5077325;28;20454;-49
2024/03/14 08:34:17;;;;;;;1.70;1.17;;;10.80;99.90;;;;;;5085961;28;20582;-48
2024/03/14 08:36:45;;;;;;;1.70;0.90;;;10.90;99.90;;;;;;5076103;28;20797;-49
2024/03/14 08:39:15;;;;;;;1.73;1.10;;;10.80;99.90;;;;;;5085620;28;20451;-49
2024/03/14 08:41:45;;;;;;;2.07;1.23;;;10.80;99.90;;;;;;5077453;28;20459;-48
2024/03/14 08:44:13;;;;;;;1.50;0.90;;;10.80;99.90;;;;;;5089905;28;20882;-48
2024/03/14 08:46:43;;;;;;;1.60;1.10;;;10.80;99.90;;;;;;5079634;28;20448;-48
2024/03/14 08:49:14;;;;;;;2.20;1.07;;;10.80;99.90;;;;;;5076022;28;20552;-49
2024/03/14 08:51:42;;;;;;;2.07;1.10;;;10.90;99.90;;;;;;5082831;28;20454;-48
2024/03/14 08:54:28;;;;;;;2.10;0.83;;;10.90;99.90;;;;;;5075571;28;20423;-47
2024/03/14 08:56:58;;;;;;;1.57;1.00;;;10.90;99.90;;;;;;5077159;28;20448;-51
2024/03/14 08:59:28;;;;;;;1.70;1.10;;;10.90;99.90;;;;;;5084363;28;20996;-48
2024/03/14 09:01:57;;;;;;;1.60;1.00;;;10.90;99.90;;;;;;5078689;28;20428;-47
2024/03/14 09:04:25;;;;;;;1.63;1.07;;;10.90;99.90;;;;;;5077613;28;21037;-49
2024/03/14 09:06:53;;;;;;;1.20;0.90;;;10.90;99.90;;;;;;5078998;28;20446;-49
2024/03/14 09:09:27;;;;;;;1.40;0.90;;;10.90;99.90;;;;;;5089368;28;20517;-48
2024/03/14 09:12:05;;;;;;;1.70;1.20;;;10.90;99.90;;;;;;5070027;28;20794;-47
2024/03/14 09:14:36;;;;;;;1.30;0.80;;;10.90;99.90;;;;;;5075900;28;20871;-48
2024/03/14 09:17:05;;;;;;;1.63;1.00;;;10.90;99.90;;;;;;5081659;28;20435;-48
2024/03/14 09:19:33;;;;;;;1.47;1.00;;;10.90;99.90;;;;;;5075578;28;20461;-52
2024/03/14 09:22:02;;;;;;;1.47;0.70;;;10.90;99.90;;;;;;5076889;28;20846;-48
2024/03/14 09:24:32;;;;;;;1.30;0.90;;;10.90;99.90;;;;;;5075816;28;21011;-48
2024/03/14 09:27:02;;;;;;;1.70;1.20;;;10.90;99.90;;;;;;5057954;28;20476;-48
2024/03/14 09:29:32;;;;;;;1.90;1.20;;;10.90;99.90;;;;;;5086136;28;20448;-50
2024/03/14 09:32:00;;;;;;;1.80;0.80;;;10.90;99.90;;;;;;5069897;28;20466;-48
2024/03/14 09:34:29;;;;;;;1.73;0.70;;;10.90;99.90;;;;;;5082244;28;20870;-49
2024/03/14 09:36:57;;;;;;;1.37;1.03;;;10.90;99.90;;;;;;5067350;28;20430;-50
2024/03/14 09:39:35;;;;;;;1.43;0.83;;;10.90;99.90;;;;;;5082038;28;20448;-50
2024/03/14 09:42:04;;;;;;;1.70;1.00;;;10.90;99.90;;;;;;5082203;28;20448;-48
2024/03/14 09:44:33;;;;;;;1.70;0.90;;;10.90;99.90;;;;;;5084400;28;20482;-49
2024/03/14 09:47:01;;;;;;;1.47;1.00;;;10.90;99.90;;;;;;5079017;28;20445;-49
2024/03/14 09:49:30;;;;;;;1.47;0.90;;;10.90;99.90;;;;;;5078978;28;20972;-49
2024/03/14 09:51:58;;;;;;;1.53;1.00;;;10.90;99.90;;;;;;5071184;28;20548;-46
2024/03/14 09:54:26;;;;;;;1.20;0.70;;;10.90;99.90;;;;;;5086533;28;20798;-49
2024/03/14 09:56:55;;;;;;;1.20;0.67;;;10.90;99.90;;;;;;5078489;28;20544;-50
2024/03/14 09:59:23;;;;;;;1.20;0.80;;;11.00;99.90;;;;;;5081465;28;20507;-50
2024/03/14 10:01:51;;;;;;;1.27;0.80;;;10.90;99.90;;;;;;5076433;28;20435;-49
2024/03/14 10:04:20;;;;;;;2.30;1.20;;;11.00;99.90;;;;;;5064910;28;20563;-49
2024/03/14 10:06:48;;;;;;;1.10;0.70;;;11.00;99.90;;;;;;5075824;28;20434;-48
2024/03/14 10:09:22;;;;;;;1.70;0.70;;;10.90;99.90;;;;;;5074390;28;20452;-47
2024/03/14 10:11:58;;;;;;;1.63;1.20;;;10.90;99.90;;;;;;5079412;28;20434;-47
2024/03/14 10:14:26;;;;;;;1.57;0.90;;;11.00;99.90;;;;;;5076250;28;20432;-47
2024/03/14 10:16:56;;;;;;;1.40;1.00;;;11.00;99.90;;;;;;5074990;28;20425;-49
2024/03/14 10:19:30;;;;;;;1.63;1.13;;;11.00;99.90;;;;;;5082469;28;20438;-47
2024/03/14 10:22:01;;;;;;;1.40;0.90;;;11.00;99.90;;;;;;5078876;28;20464;-48
2024/03/14 10:24:29;;;;;;;1.13;0.77;;;10.90;99.90;;;;;;5076825;28;20978;-48
2024/03/14 10:26:57;;;;;;;1.20;0.80;;;10.90;99.90;;;;;;5054018;28;20450;-49
2024/03/14 10:29:29;;;;;;;2.10;1.10;;;11.00;99.90;;;;;;5065630;28;20440;-48
2024/03/14 10:31:57;;;;;;;1.37;0.73;;;11.00;99.90;;;;;;5053664;28;20852;-51
2024/03/14 10:34:25;;;;;;;1.47;0.90;;;11.00;99.90;;;;;;5083688;28;20432;-49
2024/03/14 10:36:54;;;;;;;1.30;0.80;;;11.00;99.90;;;;;;5077735;28;20452;-50
2024/03/14 10:39:23;;;;;;;1.43;0.83;;;11.00;99.90;;;;;;5074489;28;20451;-51
2024/03/14 10:41:53;;;;;;;1.20;0.80;;;11.00;99.90;;;;;;5059085;28;20942;-49
2024/03/14 10:44:21;;;;;;;1.20;0.63;;;11.00;99.90;;;;;;5078048;28;20430;-48
2024/03/14 10:46:50;;;;;;;1.40;0.83;;;11.00;99.90;;;;;;5072428;28;20453;-50
2024/03/14 10:49:20;;;;;;;1.17;0.77;;;11.00;99.90;;;;;;5075381;28;20529;-49
2024/03/14 10:51:49;;;;;;;1.60;1.23;;;11.00;99.90;;;;;;5075598;28;20537;-49
2024/03/14 10:54:18;;;;;;;1.30;0.80;;;11.00;99.90;;;;;;5071173;28;21065;-48
2024/03/14 10:56:47;;;;;;;1.60;1.00;;;11.00;99.90;;;;;;5051246;28;20437;-49
2024/03/14 10:59:16;;;;;;;1.67;0.87;;;11.00;99.90;;;;;;5071419;28;20450;-48
2024/03/14 11:01:50;;;;;;;1.30;1.00;;;11.00;99.90;;;;;;5072951;28;20458;-48
2024/03/14 11:04:20;;;;;;;1.50;0.80;;;11.00;99.90;;;;;;5072679;28;20419;-48
2024/03/14 11:06:49;;;;;;;1.20;0.70;;;11.00;99.90;;;;;;5080691;28;20988;-48
2024/03/14 11:09:18;;;;;;;1.50;0.70;;;11.00;99.90;;;;;;5077227;28;20467;-51
2024/03/14 11:11:48;;;;;;;1.43;0.77;;;11.00;99.90;;;;;;5067489;28;20446;-46
2024/03/14 11:14:16;;;;;;;1.20;0.70;;;11.00;99.90;;;;;;5078847;28;20444;-50
2024/03/14 11:16:44;;;;;;;1.23;0.70;;;11.00;99.90;;;;;;5061176;28;20450;-48
2024/03/14 11:19:15;;;;;;;1.50;1.00;;;11.00;99.90;;;;;;5070118;28;20452;-48
2024/03/14 11:21:44;;;;;;;2.60;0.77;;;11.00;99.90;;;;;;5072292;28;20430;-48
2024/03/14 11:24:13;;;;;;;1.43;0.73;;;11.00;99.90;;;;;;5076294;28;20417;-48
2024/03/14 11:26:42;;;;;;;1.47;1.00;;;11.00;99.90;;;;;;5052348;28;20512;-48
2024/03/14 11:29:14;;;;;;;1.50;0.83;;;11.00;99.90;;;;;;5072805;28;20450;-50
2024/03/14 11:31:44;;;;;;;1.47;0.63;;;11.00;99.90;;;;;;5076961;28;20431;-49
2024/03/14 11:34:17;;;;;;;2.10;0.80;;;11.10;99.90;;;;;;5051196;28;20425;-47
2024/03/14 11:36:46;;;;;;;1.00;0.60;;;11.10;99.90;;;;;;5051743;28;20437;-50
2024/03/14 11:39:16;;;;;;;1.43;0.80;;;11.00;99.90;;;;;;5069987;28;20471;-49
2024/03/14 11:41:45;;;;;;;1.27;0.70;;;11.10;99.90;;;;;;5071305;28;20842;-48
2024/03/14 11:44:17;;;;;;;1.50;0.60;;;11.10;99.90;;;;;;5074918;28;20434;-47
2024/03/14 11:46:49;;;;;;;1.10;0.60;;;11.00;99.90;;;;;;5054609;28;20466;-49
2024/03/14 11:49:20;;;;;;;1.87;0.73;;;11.10;99.90;;;;;;5069045;28;20466;-48
2024/03/14 11:51:49;;;;;;;1.50;0.73;;;11.10;99.90;;;;;;5073128;28;21089;-47
2024/03/14 11:54:20;;;;;;;1.47;0.73;;;11.10;99.90;;;;;;5077687;28;20783;-49
2024/03/14 11:56:50;;;;;;;1.53;0.70;;;11.10;99.90;;;;;;5080740;28;20436;-49
2024/03/14 11:59:22;;;;;;;1.20;0.70;;;11.10;99.90;;;;;;5081581;28;20440;-49
2024/03/14 12:01:54;;;;;;;1.27;0.80;;;11.10;99.90;;;;;;5071257;28;20481;-49
2024/03/14 12:04:25;;;;;;;1.40;0.80;;;11.10;99.90;;;;;;5083710;28;20491;-49
2024/03/14 12:06:54;;;;;;;1.60;0.70;;;11.10;99.90;;;;;;5068507;28;20469;-49
2024/03/14 12:09:24;;;;;;;1.30;0.83;;;11.10;99.90;;;;;;5082867;28;20449;-47
2024/03/14 12:11:52;;;;;;;1.20;0.70;;;11.10;99.90;;;;;;5076909;28;20452;-47
2024/03/14 12:14:22;;;;;;;1.23;0.53;;;11.10;99.90;;;;;;5084033;28;20501;-47
2024/03/14 12:16:50;;;;;;;1.37;0.70;;;11.10;99.90;;;;;;5053347;28;20418;-49
2024/03/14 12:19:19;;;;;;;1.60;1.00;;;11.10;99.90;;;;;;5075014;28;20448;-52
2024/03/14 12:21:59;;;;;;;2.13;0.87;;;11.10;99.90;;;;;;5056479;28;20466;-48
2024/03/14 12:24:28;;;;;;;1.53;0.90;;;11.10;99.90;;;;;;5073914;28;20536;-49
2024/03/14 12:26:58;;;;;;;1.20;0.63;;;11.10;99.90;;;;;;5075331;28;20474;-49
2024/03/14 12:29:26;;;;;;;1.30;0.80;;;11.10;99.90;;;;;;5086072;28;20449;-51
2024/03/14 12:31:55;;;;;;;1.73;0.73;;;11.10;99.90;;;;;;5060265;28;20453;-48
2024/03/14 12:34:24;;;;;;;1.30;0.70;;;11.10;99.90;;;;;;5074446;28;20844;-47
2024/03/14 12:36:53;;;;;;;1.60;0.80;;;11.10;99.90;;;;;;5055444;28;20437;-49
2024/03/14 12:39:21;;;;;;;2.70;1.20;;;11.10;99.90;;;;;;5060065;28;20451;-48
2024/03/14 12:41:51;;;;;;;1.53;0.83;;;11.10;99.90;;;;;;5072787;28;20459;-49
2024/03/14 12:44:20;;;;;;;1.40;0.90;;;11.10;99.90;;;;;;5079104;28;21110;-50
2024/03/14 12:46:48;;;;;;;1.63;0.93;;;11.20;99.90;;;;;;5075790;28;20497;-50
2024/03/14 12:49:16;;;;;;;1.70;0.80;;;11.20;99.90;;;;;;5073453;28;20468;-49
2024/03/14 12:51:45;;;;;;;1.87;1.03;;;11.10;99.90;;;;;;5067295;28;20456;-49
2024/03/14 12:54:13;;;;;;;1.50;0.87;;;11.20;99.90;;;;;;5052113;28;20442;-47
2024/03/14 12:56:43;;;;;;;1.60;0.80;;;11.20;99.90;;;;;;5071207;28;20491;-47
2024/03/14 12:59:12;;;;;;;1.33;0.70;;;11.20;99.90;;;;;;5074247;28;20494;-50
2024/03/14 13:01:50;;;;;;;1.50;1.00;;;11.20;99.90;;;;;;5074831;28;20487;-50